sensor_id;sensor_type;location;lat;lon;timestamp;temperature;humidity
15997;DHT22;8103;51.340;12.326;2023-04-24T00:01:23;14.10;99.90
15997;DHT22;8103;51.340;12.326;2023-04-24T00:03:50;14.10;99.90
15997;DHT22;8103;51.340;12.326;2023-04-24T00:06:17;14.10;99.90
15997;DHT22;8103;51.340;12.326;2023-04-24T00:08:44;14.00;99.90
15997;DHT22;8103;51.340;12.326;2023-04-24T00:11:12;13.90;99.90
15997;DHT22;8103;51.340;12.326;2023-04-24T00:13:39;13.90;99.90
15997;DHT22;8103;51.340;12.326;2023-04-24T00:16:08;13.80;99.90
15997;DHT22;8103;51.340;12.326;2023-04-24T00:18:35;13.80;99.90
15997;DHT22;8103;51.340;12.326;2023-04-24T00:21:02;13.70;99.90
15997;DHT22;8103;51.340;12.326;2023-04-24T00:23:30;13.60;99.90
15997;DHT22;8103;51.340;12.326;2023-04-24T00:25:57;13.60;99.90
15997;DHT22;8103;51.340;12.326;2023-04-24T00:28:24;13.50;99.90
15997;DHT22;8103;51.340;12.326;2023-04-24T00:30:56;13.40;99.90
15997;DHT22;8103;51.340;12.326;2023-04-24T00:33:23;13.40;99.90
15997;DHT22;8103;51.340;12.326;2023-04-24T00:35:49;13.30;99.90
15997;DHT22;8103;51.340;12.326;2023-04-24T00:38:17;13.30;99.90
15997;DHT22;8103;51.340;12.326;2023-04-24T00:40:44;13.20;99.90
15997;DHT22;8103;51.340;12.326;2023-04-24T00:43:11;13.20;99.90
15997;DHT22;8103;51.340;12.326;2023-04-24T00:45:38;13.10;99.90
15997;DHT22;8103;51.340;12.326;2023-04-24T00:48:05;13.10;99.90
15997;DHT22;8103;51.340;12.326;2023-04-24T00:50:33;13.00;99.90
15997;DHT22;8103;51.340;12.326;2023-04-24T00:53:02;13.00;99.90
15997;DHT22;8103;51.340;12.326;2023-04-24T00:55:29;12.90;99.90
15997;DHT22;8103;51.340;12.326;2023-04-24T00:57:58;12.90;99.90
15997;DHT22;8103;51.340;12.326;2023-04-24T01:02:58;12.80;99.90
15997;DHT22;8103;51.340;12.326;2023-04-24T01:05:28;12.80;99.90
15997;DHT22;8103;51.340;12.326;2023-04-24T01:07:56;12.80;99.90
15997;DHT22;8103;51.340;12.326;2023-04-24T01:10:25;12.80;99.90
15997;DHT22;8103;51.340;12.326;2023-04-24T01:12:57;12.80;99.90
15997;DHT22;8103;51.340;12.326;2023-04-24T01:15:24;12.70;99.90
15997;DHT22;8103;51.340;12.326;2023-04-24T01:17:54;12.70;99.90
15997;DHT22;8103;51.340;12.326;2023-04-24T01:20:21;12.70;99.90
15997;DHT22;8103;51.340;12.326;2023-04-24T01:22:49;12.70;99.90
15997;DHT22;8103;51.340;12.326;2023-04-24T01:25:17;12.70;99.90
15997;DHT22;8103;51.340;12.326;2023-04-24T01:27:48;12.70;99.90
15997;DHT22;8103;51.340;12.326;2023-04-24T01:30:14;12.70;99.90
15997;DHT22;8103;51.340;12.326;2023-04-24T01:32:42;12.70;99.90
15997;DHT22;8103;51.340;12.326;2023-04-24T01:35:11;12.70;99.90
15997;DHT22;8103;51.340;12.326;2023-04-24T01:37:37;12.70;99.90
15997;DHT22;8103;51.340;12.326;2023-04-24T01:40:06;12.70;99.90
15997;DHT22;8103;51.340;12.326;2023-04-24T01:42:34;12.70;99.90
15997;DHT22;8103;51.340;12.326;2023-04-24T01:45:02;12.60;99.90
15997;DHT22;8103;51.340;12.326;2023-04-24T01:47:33;12.60;99.90
15997;DHT22;8103;51.340;12.326;2023-04-24T01:50:00;12.60;99.90
15997;DHT22;8103;51.340;12.326;2023-04-24T01:52:26;12.60;99.90
15997;DHT22;8103;51.340;12.326;2023-04-24T01:54:55;12.60;99.90
15997;DHT22;8103;51.340;12.326;2023-04-24T01:57:22;12.50;99.90
15997;DHT22;8103;51.340;12.326;2023-04-24T01:59:49;12.50;99.90
15997;DHT22;8103;51.340;12.326;2023-04-24T02:02:17;12.50;99.90
15997;DHT22;8103;51.340;12.326;2023-04-24T02:04:44;12.50;99.90
15997;DHT22;8103;51.340;12.326;2023-04-24T02:07:11;12.40;99.90
15997;DHT22;8103;51.340;12.326;2023-04-24T02:09:38;12.50;99.90
15997;DHT22;8103;51.340;12.326;2023-04-24T02:12:05;12.40;99.90
15997;DHT22;8103;51.340;12.326;2023-04-24T02:14:32;12.40;99.90
15997;DHT22;8103;51.340;12.326;2023-04-24T02:16:59;12.30;99.90
15997;DHT22;8103;51.340;12.326;2023-04-24T02:19:27;12.40;99.90
15997;DHT22;8103;51.340;12.326;2023-04-24T02:21:54;12.30;99.90
15997;DHT22;8103;51.340;12.326;2023-04-24T02:24:22;12.30;99.90
15997;DHT22;8103;51.340;12.326;2023-04-24T02:26:48;12.20;99.90
15997;DHT22;8103;51.340;12.326;2023-04-24T02:29:17;12.20;99.90
15997;DHT22;8103;51.340;12.326;2023-04-24T02:31:44;12.20;99.90
15997;DHT22;8103;51.340;12.326;2023-04-24T02:34:11;12.20;99.90
15997;DHT22;8103;51.340;12.326;2023-04-24T02:36:37;12.10;99.90
15997;DHT22;8103;51.340;12.326;2023-04-24T02:39:06;12.20;99.90
15997;DHT22;8103;51.340;12.326;2023-04-24T02:41:35;12.20;99.90
15997;DHT22;8103;51.340;12.326;2023-04-24T02:44:01;12.10;99.90
15997;DHT22;8103;51.340;12.326;2023-04-24T02:46:28;12.10;99.90
15997;DHT22;8103;51.340;12.326;2023-04-24T02:48:55;12.10;99.90
15997;DHT22;8103;51.340;12.326;2023-04-24T02:51:22;12.00;99.90
15997;DHT22;8103;51.340;12.326;2023-04-24T02:53:49;12.00;99.90
15997;DHT22;8103;51.340;12.326;2023-04-24T02:56:15;12.00;99.90
15997;DHT22;8103;51.340;12.326;2023-04-24T02:58:42;12.00;99.90
15997;DHT22;8103;51.340;12.326;2023-04-24T03:01:10;11.90;99.90
15997;DHT22;8103;51.340;12.326;2023-04-24T03:03:37;11.90;99.90
15997;DHT22;8103;51.340;12.326;2023-04-24T03:06:06;11.90;99.90
15997;DHT22;8103;51.340;12.326;2023-04-24T03:08:34;11.80;99.90
15997;DHT22;8103;51.340;12.326;2023-04-24T03:11:01;11.70;99.90
15997;DHT22;8103;51.340;12.326;2023-04-24T03:13:28;11.70;99.90
15997;DHT22;8103;51.340;12.326;2023-04-24T03:15:55;11.70;99.90
15997;DHT22;8103;51.340;12.326;2023-04-24T03:18:22;11.70;99.90
15997;DHT22;8103;51.340;12.326;2023-04-24T03:20:49;11.70;99.90
15997;DHT22;8103;51.340;12.326;2023-04-24T03:23:16;11.70;99.90
15997;DHT22;8103;51.340;12.326;2023-04-24T03:25:44;11.60;99.90
15997;DHT22;8103;51.340;12.326;2023-04-24T03:28:11;11.70;99.90
15997;DHT22;8103;51.340;12.326;2023-04-24T03:30:38;11.70;99.90
15997;DHT22;8103;51.340;12.326;2023-04-24T03:37:11;11.60;99.90
15997;DHT22;8103;51.340;12.326;2023-04-24T03:39:38;11.60;99.90
15997;DHT22;8103;51.340;12.326;2023-04-24T03:42:05;11.60;99.90
15997;DHT22;8103;51.340;12.326;2023-04-24T03:44:32;11.60;99.90
15997;DHT22;8103;51.340;12.326;2023-04-24T03:46:59;11.60;99.90
15997;DHT22;8103;51.340;12.326;2023-04-24T03:49:26;11.60;99.90
15997;DHT22;8103;51.340;12.326;2023-04-24T03:51:53;11.60;99.90
15997;DHT22;8103;51.340;12.326;2023-04-24T03:54:20;11.60;99.90
15997;DHT22;8103;51.340;12.326;2023-04-24T03:56:48;11.60;99.90
15997;DHT22;8103;51.340;12.326;2023-04-24T03:59:15;11.60;99.90
15997;DHT22;8103;51.340;12.326;2023-04-24T04:01:41;11.60;99.90
15997;DHT22;8103;51.340;12.326;2023-04-24T04:04:09;11.50;99.90
15997;DHT22;8103;51.340;12.326;2023-04-24T04:06:37;11.50;99.90
15997;DHT22;8103;51.340;12.326;2023-04-24T04:09:04;11.50;99.90
15997;DHT22;8103;51.340;12.326;2023-04-24T04:11:31;11.50;99.90
15997;DHT22;8103;51.340;12.326;2023-04-24T04:13:58;11.40;99.90
15997;DHT22;8103;51.340;12.326;2023-04-24T04:20:30;11.50;99.90
15997;DHT22;8103;51.340;12.326;2023-04-24T04:22:57;11.50;99.90
15997;DHT22;8103;51.340;12.326;2023-04-24T04:25:24;11.50;99.90
15997;DHT22;8103;51.340;12.326;2023-04-24T04:27:51;11.50;99.90
15997;DHT22;8103;51.340;12.326;2023-04-24T04:30:18;11.50;99.90
15997;DHT22;8103;51.340;12.326;2023-04-24T04:32:45;11.60;99.90
15997;DHT22;8103;51.340;12.326;2023-04-24T04:35:12;11.60;99.90
15997;DHT22;8103;51.340;12.326;2023-04-24T04:37:39;11.60;99.90
15997;DHT22;8103;51.340;12.326;2023-04-24T04:40:07;11.60;99.90
15997;DHT22;8103;51.340;12.326;2023-04-24T04:42:38;11.60;99.90
15997;DHT22;8103;51.340;12.326;2023-04-24T04:45:11;11.70;99.90
15997;DHT22;8103;51.340;12.326;2023-04-24T04:47:38;11.70;99.90
15997;DHT22;8103;51.340;12.326;2023-04-24T04:50:06;11.70;99.90
15997;DHT22;8103;51.340;12.326;2023-04-24T04:52:33;11.70;99.90
15997;DHT22;8103;51.340;12.326;2023-04-24T04:55:00;11.70;99.90
15997;DHT22;8103;51.340;12.326;2023-04-24T04:57:27;11.80;99.90
15997;DHT22;8103;51.340;12.326;2023-04-24T04:59:54;11.80;99.90
15997;DHT22;8103;51.340;12.326;2023-04-24T05:02:23;11.80;99.90
15997;DHT22;8103;51.340;12.326;2023-04-24T05:04:50;11.90;99.90
15997;DHT22;8103;51.340;12.326;2023-04-24T05:07:17;11.90;99.90
15997;DHT22;8103;51.340;12.326;2023-04-24T05:09:44;11.90;99.90
15997;DHT22;8103;51.340;12.326;2023-04-24T05:12:11;12.00;99.90
15997;DHT22;8103;51.340;12.326;2023-04-24T05:18:44;12.00;99.90
15997;DHT22;8103;51.340;12.326;2023-04-24T05:21:11;12.10;99.90
15997;DHT22;8103;51.340;12.326;2023-04-24T05:23:38;12.20;99.90
15997;DHT22;8103;51.340;12.326;2023-04-24T05:26:05;12.20;99.90
15997;DHT22;8103;51.340;12.326;2023-04-24T05:28:33;12.30;99.90
15997;DHT22;8103;51.340;12.326;2023-04-24T05:31:03;12.40;99.90
15997;DHT22;8103;51.340;12.326;2023-04-24T05:33:30;12.50;99.90
15997;DHT22;8103;51.340;12.326;2023-04-24T05:35:57;12.50;99.90
15997;DHT22;8103;51.340;12.326;2023-04-24T05:38:24;12.50;99.90
15997;DHT22;8103;51.340;12.326;2023-04-24T05:40:51;12.50;99.90
15997;DHT22;8103;51.340;12.326;2023-04-24T05:43:18;12.50;99.90
15997;DHT22;8103;51.340;12.326;2023-04-24T05:45:45;12.50;99.90
15997;DHT22;8103;51.340;12.326;2023-04-24T05:48:12;12.50;99.90
15997;DHT22;8103;51.340;12.326;2023-04-24T05:50:42;12.50;99.90
15997;DHT22;8103;51.340;12.326;2023-04-24T05:53:09;12.70;99.90
15997;DHT22;8103;51.340;12.326;2023-04-24T05:55:37;12.80;99.90
15997;DHT22;8103;51.340;12.326;2023-04-24T05:58:03;12.90;99.90
15997;DHT22;8103;51.340;12.326;2023-04-24T06:00:34;12.90;99.90
15997;DHT22;8103;51.340;12.326;2023-04-24T06:03:01;13.00;99.90
15997;DHT22;8103;51.340;12.326;2023-04-24T06:05:30;13.00;99.90
15997;DHT22;8103;51.340;12.326;2023-04-24T06:07:57;13.10;99.90
15997;DHT22;8103;51.340;12.326;2023-04-24T06:10:24;13.10;99.90
15997;DHT22;8103;51.340;12.326;2023-04-24T06:12:51;13.20;99.90
15997;DHT22;8103;51.340;12.326;2023-04-24T06:19:24;13.30;99.90
15997;DHT22;8103;51.340;12.326;2023-04-24T06:21:51;13.40;99.90
15997;DHT22;8103;51.340;12.326;2023-04-24T06:24:18;13.40;99.90
15997;DHT22;8103;51.340;12.326;2023-04-24T06:26:45;13.30;99.90
15997;DHT22;8103;51.340;12.326;2023-04-24T06:29:12;13.30;99.90
15997;DHT22;8103;51.340;12.326;2023-04-24T06:31:39;13.30;99.90
15997;DHT22;8103;51.340;12.326;2023-04-24T06:34:06;13.30;99.90
15997;DHT22;8103;51.340;12.326;2023-04-24T06:36:34;13.20;99.90
15997;DHT22;8103;51.340;12.326;2023-04-24T06:39:02;13.20;99.90
15997;DHT22;8103;51.340;12.326;2023-04-24T06:41:29;13.20;99.90
15997;DHT22;8103;51.340;12.326;2023-04-24T06:43:56;13.20;99.90
15997;DHT22;8103;51.340;12.326;2023-04-24T06:46:23;13.10;99.90
15997;DHT22;8103;51.340;12.326;2023-04-24T06:48:53;13.10;99.90
15997;DHT22;8103;51.340;12.326;2023-04-24T06:51:27;13.10;99.90
15997;DHT22;8103;51.340;12.326;2023-04-24T06:53:54;13.20;99.90
15997;DHT22;8103;51.340;12.326;2023-04-24T06:56:22;13.30;99.90
15997;DHT22;8103;51.340;12.326;2023-04-24T06:58:52;13.40;99.90
15997;DHT22;8103;51.340;12.326;2023-04-24T07:01:19;13.40;99.90
15997;DHT22;8103;51.340;12.326;2023-04-24T07:03:46;13.50;99.90
15997;DHT22;8103;51.340;12.326;2023-04-24T07:06:13;13.50;99.90
15997;DHT22;8103;51.340;12.326;2023-04-24T07:08:43;13.50;99.90
15997;DHT22;8103;51.340;12.326;2023-04-24T07:11:10;13.40;99.90
15997;DHT22;8103;51.340;12.326;2023-04-24T07:13:37;13.40;99.90
15997;DHT22;8103;51.340;12.326;2023-04-24T07:16:08;13.40;99.90
15997;DHT22;8103;51.340;12.326;2023-04-24T07:18:35;13.30;99.90
15997;DHT22;8103;51.340;12.326;2023-04-24T07:21:03;13.30;99.90
15997;DHT22;8103;51.340;12.326;2023-04-24T07:23:29;13.40;99.90
15997;DHT22;8103;51.340;12.326;2023-04-24T07:25:57;13.40;99.90
15997;DHT22;8103;51.340;12.326;2023-04-24T07:28:24;13.50;99.90
15997;DHT22;8103;51.340;12.326;2023-04-24T07:34:58;13.70;99.90
15997;DHT22;8103;51.340;12.326;2023-04-24T07:37:24;14.00;99.90
15997;DHT22;8103;51.340;12.326;2023-04-24T07:39:52;14.20;99.90
15997;DHT22;8103;51.340;12.326;2023-04-24T07:42:19;14.30;99.90
15997;DHT22;8103;51.340;12.326;2023-04-24T07:44:46;14.30;99.90
15997;DHT22;8103;51.340;12.326;2023-04-24T07:47:14;14.40;99.90
15997;DHT22;8103;51.340;12.326;2023-04-24T07:49:44;14.40;99.90
15997;DHT22;8103;51.340;12.326;2023-04-24T07:52:14;14.50;99.90
15997;DHT22;8103;51.340;12.326;2023-04-24T07:54:44;14.60;99.90
15997;DHT22;8103;51.340;12.326;2023-04-24T07:57:11;14.60;99.90
15997;DHT22;8103;51.340;12.326;2023-04-24T08:03:44;15.00;99.50
15997;DHT22;8103;51.340;12.326;2023-04-24T08:06:12;15.40;97.90
15997;DHT22;8103;51.340;12.326;2023-04-24T08:08:38;15.50;97.10
15997;DHT22;8103;51.340;12.326;2023-04-24T08:11:06;15.60;96.90
15997;DHT22;8103;51.340;12.326;2023-04-24T08:13:33;15.80;96.90
15997;DHT22;8103;51.340;12.326;2023-04-24T08:16:03;16.10;99.00
15997;DHT22;8103;51.340;12.326;2023-04-24T08:18:30;16.30;96.00
15997;DHT22;8103;51.340;12.326;2023-04-24T08:20:57;16.50;95.20
15997;DHT22;8103;51.340;12.326;2023-04-24T08:23:27;16.70;94.10
15997;DHT22;8103;51.340;12.326;2023-04-24T08:25:56;16.70;93.40
15997;DHT22;8103;51.340;12.326;2023-04-24T08:28:25;16.70;91.80
15997;DHT22;8103;51.340;12.326;2023-04-24T08:30:52;16.80;91.80
15997;DHT22;8103;51.340;12.326;2023-04-24T08:33:23;17.00;92.20
15997;DHT22;8103;51.340;12.326;2023-04-24T08:35:50;17.20;90.80
15997;DHT22;8103;51.340;12.326;2023-04-24T08:38:17;17.10;87.10
15997;DHT22;8103;51.340;12.326;2023-04-24T08:40:47;16.80;90.80
15997;DHT22;8103;51.340;12.326;2023-04-24T08:43:16;16.50;92.80
15997;DHT22;8103;51.340;12.326;2023-04-24T08:45:44;16.20;89.00
15997;DHT22;8103;51.340;12.326;2023-04-24T08:48:11;16.10;91.90
15997;DHT22;8103;51.340;12.326;2023-04-24T08:50:53;16.00;88.70
15997;DHT22;8103;51.340;12.326;2023-04-24T08:53:20;16.00;89.00
15997;DHT22;8103;51.340;12.326;2023-04-24T08:55:48;16.10;89.50
15997;DHT22;8103;51.340;12.326;2023-04-24T08:58:16;16.50;88.10
15997;DHT22;8103;51.340;12.326;2023-04-24T09:00:44;16.70;90.20
15997;DHT22;8103;51.340;12.326;2023-04-24T09:03:16;17.00;90.10
15997;DHT22;8103;51.340;12.326;2023-04-24T09:05:46;17.20;90.00
15997;DHT22;8103;51.340;12.326;2023-04-24T09:08:19;17.30;86.50
15997;DHT22;8103;51.340;12.326;2023-04-24T09:10:49;17.20;85.20
15997;DHT22;8103;51.340;12.326;2023-04-24T09:13:18;17.10;84.40
15997;DHT22;8103;51.340;12.326;2023-04-24T09:15:46;16.90;84.70
15997;DHT22;8103;51.340;12.326;2023-04-24T09:18:13;16.70;86.70
15997;DHT22;8103;51.340;12.326;2023-04-24T09:21:03;16.50;90.00
15997;DHT22;8103;51.340;12.326;2023-04-24T09:27:42;16.10;90.40
15997;DHT22;8103;51.340;12.326;2023-04-24T09:30:11;16.00;90.00
15997;DHT22;8103;51.340;12.326;2023-04-24T09:32:38;16.00;90.50
15997;DHT22;8103;51.340;12.326;2023-04-24T09:39:14;15.80;88.70
15997;DHT22;8103;51.340;12.326;2023-04-24T09:45:49;15.50;87.10
15997;DHT22;8103;51.340;12.326;2023-04-24T09:48:15;15.60;90.00
15997;DHT22;8103;51.340;12.326;2023-04-24T09:50:46;16.10;92.00
15997;DHT22;8103;51.340;12.326;2023-04-24T09:53:13;15.80;86.20
15997;DHT22;8103;51.340;12.326;2023-04-24T09:55:45;16.20;82.20
15997;DHT22;8103;51.340;12.326;2023-04-24T09:58:14;17.40;78.40
15997;DHT22;8103;51.340;12.326;2023-04-24T10:00:41;18.40;73.00
15997;DHT22;8103;51.340;12.326;2023-04-24T10:03:08;18.70;70.80
15997;DHT22;8103;51.340;12.326;2023-04-24T10:05:36;18.60;70.40
15997;DHT22;8103;51.340;12.326;2023-04-24T10:08:06;18.50;70.70
15997;DHT22;8103;51.340;12.326;2023-04-24T10:10:43;18.40;71.30
15997;DHT22;8103;51.340;12.326;2023-04-24T10:13:13;18.40;71.10
15997;DHT22;8103;51.340;12.326;2023-04-24T10:15:42;18.30;67.60
15997;DHT22;8103;51.340;12.326;2023-04-24T10:18:09;18.20;65.50
15997;DHT22;8103;51.340;12.326;2023-04-24T10:20:39;18.00;65.10
15997;DHT22;8103;51.340;12.326;2023-04-24T10:23:07;17.80;64.90
15997;DHT22;8103;51.340;12.326;2023-04-24T10:25:35;18.00;67.70
15997;DHT22;8103;51.340;12.326;2023-04-24T10:28:04;18.50;62.50
15997;DHT22;8103;51.340;12.326;2023-04-24T10:30:33;18.90;61.40
15997;DHT22;8103;51.340;12.326;2023-04-24T10:35:37;20.60;57.30
15997;DHT22;8103;51.340;12.326;2023-04-24T10:38:11;21.40;55.80
15997;DHT22;8103;51.340;12.326;2023-04-24T10:40:39;22.80;52.40
15997;DHT22;8103;51.340;12.326;2023-04-24T10:47:13;24.70;46.50
15997;DHT22;8103;51.340;12.326;2023-04-24T10:49:45;24.90;45.50
15997;DHT22;8103;51.340;12.326;2023-04-24T10:52:14;26.30;49.90
15997;DHT22;8103;51.340;12.326;2023-04-24T10:54:44;27.40;37.90
15997;DHT22;8103;51.340;12.326;2023-04-24T10:59:50;28.70;34.00
15997;DHT22;8103;51.340;12.326;2023-04-24T11:02:39;28.20;33.60
15997;DHT22;8103;51.340;12.326;2023-04-24T11:05:07;27.70;34.10
15997;DHT22;8103;51.340;12.326;2023-04-24T11:10:59;25.80;36.80
15997;DHT22;8103;51.340;12.326;2023-04-24T11:16:54;26.30;36.10
15997;DHT22;8103;51.340;12.326;2023-04-24T11:21:59;28.00;31.70
15997;DHT22;8103;51.340;12.326;2023-04-24T11:28:35;29.60;29.70
15997;DHT22;8103;51.340;12.326;2023-04-24T11:31:34;29.10;29.70
15997;DHT22;8103;51.340;12.326;2023-04-24T11:34:10;28.70;29.60
15997;DHT22;8103;51.340;12.326;2023-04-24T11:36:45;29.10;29.50
15997;DHT22;8103;51.340;12.326;2023-04-24T11:39:14;29.70;28.70
15997;DHT22;8103;51.340;12.326;2023-04-24T11:41:41;28.90;28.90
15997;DHT22;8103;51.340;12.326;2023-04-24T11:44:09;27.40;29.90
15997;DHT22;8103;51.340;12.326;2023-04-24T11:46:37;25.90;31.90
15997;DHT22;8103;51.340;12.326;2023-04-24T11:49:07;24.60;34.20
15997;DHT22;8103;51.340;12.326;2023-04-24T11:51:34;24.30;35.20
15997;DHT22;8103;51.340;12.326;2023-04-24T11:54:13;25.30;34.20
15997;DHT22;8103;51.340;12.326;2023-04-24T11:56:45;26.10;33.30
15997;DHT22;8103;51.340;12.326;2023-04-24T11:59:14;27.70;31.30
15997;DHT22;8103;51.340;12.326;2023-04-24T12:01:45;28.30;29.50
15997;DHT22;8103;51.340;12.326;2023-04-24T12:04:13;27.40;29.90
15997;DHT22;8103;51.340;12.326;2023-04-24T12:06:59;26.20;31.80
15997;DHT22;8103;51.340;12.326;2023-04-24T12:09:27;25.40;33.30
15997;DHT22;8103;51.340;12.326;2023-04-24T12:11:54;24.70;34.50
15997;DHT22;8103;51.340;12.326;2023-04-24T12:14:23;23.70;36.70
15997;DHT22;8103;51.340;12.326;2023-04-24T12:16:50;22.90;38.20
15997;DHT22;8103;51.340;12.326;2023-04-24T12:19:22;23.20;39.60
15997;DHT22;8103;51.340;12.326;2023-04-24T12:22:02;25.30;36.70
15997;DHT22;8103;51.340;12.326;2023-04-24T12:26:59;29.10;29.70
15997;DHT22;8103;51.340;12.326;2023-04-24T12:29:27;29.60;28.90
15997;DHT22;8103;51.340;12.326;2023-04-24T12:31:55;28.70;29.20
15997;DHT22;8103;51.340;12.326;2023-04-24T12:34:23;26.80;30.40
15997;DHT22;8103;51.340;12.326;2023-04-24T12:36:51;24.90;32.80
15997;DHT22;8103;51.340;12.326;2023-04-24T12:39:21;23.60;35.00
15997;DHT22;8103;51.340;12.326;2023-04-24T12:41:57;22.80;36.70
15997;DHT22;8103;51.340;12.326;2023-04-24T12:44:33;22.30;37.80
15997;DHT22;8103;51.340;12.326;2023-04-24T12:47:01;22.70;38.20
15997;DHT22;8103;51.340;12.326;2023-04-24T12:49:30;23.60;36.10
15997;DHT22;8103;51.340;12.326;2023-04-24T12:51:57;23.30;35.90
15997;DHT22;8103;51.340;12.326;2023-04-24T12:54:24;22.90;36.90
15997;DHT22;8103;51.340;12.326;2023-04-24T12:56:51;22.60;37.80
15997;DHT22;8103;51.340;12.326;2023-04-24T12:59:18;22.40;38.10
15997;DHT22;8103;51.340;12.326;2023-04-24T13:01:45;22.30;37.90
15997;DHT22;8103;51.340;12.326;2023-04-24T13:04:12;22.70;38.00
15997;DHT22;8103;51.340;12.326;2023-04-24T13:06:42;23.00;37.30
15997;DHT22;8103;51.340;12.326;2023-04-24T13:09:09;22.60;37.60
15997;DHT22;8103;51.340;12.326;2023-04-24T13:11:37;23.80;37.10
15997;DHT22;8103;51.340;12.326;2023-04-24T13:14:04;25.60;34.00
15997;DHT22;8103;51.340;12.326;2023-04-24T13:16:33;27.20;32.10
15997;DHT22;8103;51.340;12.326;2023-04-24T13:19:00;28.10;30.00
15997;DHT22;8103;51.340;12.326;2023-04-24T13:21:28;28.50;29.30
15997;DHT22;8103;51.340;12.326;2023-04-24T13:23:57;29.60;28.50
15997;DHT22;8103;51.340;12.326;2023-04-24T13:26:24;30.00;27.80
15997;DHT22;8103;51.340;12.326;2023-04-24T13:28:51;30.40;27.40
15997;DHT22;8103;51.340;12.326;2023-04-24T13:31:18;30.90;27.20
15997;DHT22;8103;51.340;12.326;2023-04-24T13:33:45;31.50;26.50
15997;DHT22;8103;51.340;12.326;2023-04-24T13:36:12;31.30;26.20
15997;DHT22;8103;51.340;12.326;2023-04-24T13:38:39;29.70;27.00
15997;DHT22;8103;51.340;12.326;2023-04-24T13:41:07;27.30;29.10
15997;DHT22;8103;51.340;12.326;2023-04-24T13:43:34;25.10;31.80
15997;DHT22;8103;51.340;12.326;2023-04-24T13:46:02;23.50;34.60
15997;DHT22;8103;51.340;12.326;2023-04-24T13:48:30;22.10;40.50
15997;DHT22;8103;51.340;12.326;2023-04-24T13:50:57;21.10;45.90
15997;DHT22;8103;51.340;12.326;2023-04-24T13:53:24;19.70;42.30
15997;DHT22;8103;51.340;12.326;2023-04-24T13:55:51;19.30;43.60
15997;DHT22;8103;51.340;12.326;2023-04-24T13:58:21;19.20;44.20
15997;DHT22;8103;51.340;12.326;2023-04-24T14:00:48;18.80;45.50
15997;DHT22;8103;51.340;12.326;2023-04-24T14:03:15;18.50;46.20
15997;DHT22;8103;51.340;12.326;2023-04-24T14:05:42;18.90;47.30
15997;DHT22;8103;51.340;12.326;2023-04-24T14:08:09;19.40;46.50
15997;DHT22;8103;51.340;12.326;2023-04-24T14:10:36;21.50;43.60
15997;DHT22;8103;51.340;12.326;2023-04-24T14:13:03;22.50;40.10
15997;DHT22;8103;51.340;12.326;2023-04-24T14:15:30;23.00;38.80
15997;DHT22;8103;51.340;12.326;2023-04-24T14:17:57;22.60;38.30
15997;DHT22;8103;51.340;12.326;2023-04-24T14:20:27;21.60;40.00
15997;DHT22;8103;51.340;12.326;2023-04-24T14:22:53;20.80;41.80
15997;DHT22;8103;51.340;12.326;2023-04-24T14:25:22;21.80;41.40
15997;DHT22;8103;51.340;12.326;2023-04-24T14:27:49;22.40;39.90
15997;DHT22;8103;51.340;12.326;2023-04-24T14:30:16;21.90;40.70
15997;DHT22;8103;51.340;12.326;2023-04-24T14:32:43;22.00;42.20
15997;DHT22;8103;51.340;12.326;2023-04-24T14:35:10;23.20;39.80
15997;DHT22;8103;51.340;12.326;2023-04-24T14:42:21;24.10;36.20
15997;DHT22;8103;51.340;12.326;2023-04-24T14:44:48;22.20;41.10
15997;DHT22;8103;51.340;12.326;2023-04-24T14:47:15;21.60;41.80
15997;DHT22;8103;51.340;12.326;2023-04-24T14:49:43;20.80;43.50
15997;DHT22;8103;51.340;12.326;2023-04-24T14:52:10;19.90;45.40
15997;DHT22;8103;51.340;12.326;2023-04-24T14:54:37;19.20;47.10
15997;DHT22;8103;51.340;12.326;2023-04-24T14:59:32;18.30;50.00
15997;DHT22;8103;51.340;12.326;2023-04-24T15:01:59;17.80;52.30
15997;DHT22;8103;51.340;12.326;2023-04-24T15:04:40;17.30;53.20
15997;DHT22;8103;51.340;12.326;2023-04-24T15:09:35;16.60;55.20
15997;DHT22;8103;51.340;12.326;2023-04-24T15:12:02;16.70;56.20
15997;DHT22;8103;51.340;12.326;2023-04-24T15:14:29;16.70;55.80
15997;DHT22;8103;51.340;12.326;2023-04-24T15:16:56;16.70;56.40
15997;DHT22;8103;51.340;12.326;2023-04-24T15:19:23;16.60;55.90
15997;DHT22;8103;51.340;12.326;2023-04-24T15:21:51;16.60;56.60
15997;DHT22;8103;51.340;12.326;2023-04-24T15:24:18;16.60;57.20
15997;DHT22;8103;51.340;12.326;2023-04-24T15:26:46;16.60;57.30
15997;DHT22;8103;51.340;12.326;2023-04-24T15:29:13;16.50;57.20
15997;DHT22;8103;51.340;12.326;2023-04-24T15:31:41;16.40;57.40
15997;DHT22;8103;51.340;12.326;2023-04-24T15:34:08;16.30;58.00
15997;DHT22;8103;51.340;12.326;2023-04-24T15:36:35;16.10;58.80
15997;DHT22;8103;51.340;12.326;2023-04-24T15:39:02;16.00;59.50
15997;DHT22;8103;51.340;12.326;2023-04-24T15:41:31;16.00;59.90
15997;DHT22;8103;51.340;12.326;2023-04-24T15:43:58;16.10;60.20
15997;DHT22;8103;51.340;12.326;2023-04-24T15:46:25;16.10;60.00
15997;DHT22;8103;51.340;12.326;2023-04-24T15:48:52;16.10;59.80
15997;DHT22;8103;51.340;12.326;2023-04-24T15:51:19;16.00;59.30
15997;DHT22;8103;51.340;12.326;2023-04-24T15:53:46;16.00;58.40
15997;DHT22;8103;51.340;12.326;2023-04-24T15:56:14;16.00;57.70
15997;DHT22;8103;51.340;12.326;2023-04-24T15:58:41;16.00;57.70
15997;DHT22;8103;51.340;12.326;2023-04-24T16:01:08;16.00;57.20
15997;DHT22;8103;51.340;12.326;2023-04-24T16:03:36;16.00;56.50
15997;DHT22;8103;51.340;12.326;2023-04-24T16:06:04;16.00;56.30
15997;DHT22;8103;51.340;12.326;2023-04-24T16:08:31;15.80;56.80
15997;DHT22;8103;51.340;12.326;2023-04-24T16:10:58;15.60;57.50
15997;DHT22;8103;51.340;12.326;2023-04-24T16:13:26;15.40;58.00
15997;DHT22;8103;51.340;12.326;2023-04-24T16:15:56;15.20;58.90
15997;DHT22;8103;51.340;12.326;2023-04-24T16:18:23;15.00;59.40
15997;DHT22;8103;51.340;12.326;2023-04-24T16:24:57;14.70;60.20
15997;DHT22;8103;51.340;12.326;2023-04-24T16:27:27;14.50;61.40
15997;DHT22;8103;51.340;12.326;2023-04-24T16:29:54;14.40;61.00
15997;DHT22;8103;51.340;12.326;2023-04-24T16:32:22;14.40;61.70
15997;DHT22;8103;51.340;12.326;2023-04-24T16:34:50;14.40;61.30
15997;DHT22;8103;51.340;12.326;2023-04-24T16:37:17;14.40;61.20
15997;DHT22;8103;51.340;12.326;2023-04-24T16:39:46;14.40;61.20
15997;DHT22;8103;51.340;12.326;2023-04-24T16:48:48;14.10;62.70
15997;DHT22;8103;51.340;12.326;2023-04-24T16:51:15;14.10;63.50
15997;DHT22;8103;51.340;12.326;2023-04-24T16:56:12;14.00;63.70
15997;DHT22;8103;51.340;12.326;2023-04-24T16:58:40;13.90;66.30
15997;DHT22;8103;51.340;12.326;2023-04-24T17:10:58;13.80;88.60
15997;DHT22;8103;51.340;12.326;2023-04-24T17:13:26;13.70;90.60